sensor_id;sensor_type;location;lat;lon;timestamp;P1;durP1;ratioP1;P2;durP2;ratioP2
3405;SDS011;10008;48.682;9.016;2023-05-07T00:01:17;10.13;;;5.70;;
3405;SDS011;10008;48.682;9.016;2023-05-07T00:03:44;8.33;;;6.07;;
3405;SDS011;10008;48.682;9.016;2023-05-07T00:06:09;8.97;;;5.20;;
3405;SDS011;10008;48.682;9.016;2023-05-07T00:08:38;6.67;;;5.20;;
3405;SDS011;10008;48.682;9.016;2023-05-07T00:11:03;8.30;;;6.00;;
3405;SDS011;10008;48.682;9.016;2023-05-07T00:13:29;10.40;;;5.73;;
3405;SDS011;10008;48.682;9.016;2023-05-07T00:16:00;9.20;;;6.10;;
3405;SDS011;10008;48.682;9.016;2023-05-07T00:18:27;7.97;;;5.60;;
3405;SDS011;10008;48.682;9.016;2023-05-07T00:20:53;9.23;;;5.90;;
3405;SDS011;10008;48.682;9.016;2023-05-07T00:23:19;10.10;;;6.13;;
3405;SDS011;10008;48.682;9.016;2023-05-07T00:25:44;7.93;;;5.83;;
3405;SDS011;10008;48.682;9.016;2023-05-07T00:28:10;8.57;;;5.40;;
3405;SDS011;10008;48.682;9.016;2023-05-07T00:30:36;9.00;;;5.57;;
3405;SDS011;10008;48.682;9.016;2023-05-07T00:33:01;7.57;;;5.20;;
3405;SDS011;10008;48.682;9.016;2023-05-07T00:35:28;9.57;;;5.80;;
3405;SDS011;10008;48.682;9.016;2023-05-07T00:37:54;8.43;;;5.40;;
3405;SDS011;10008;48.682;9.016;2023-05-07T00:40:20;6.77;;;5.33;;
3405;SDS011;10008;48.682;9.016;2023-05-07T00:42:46;7.80;;;5.07;;
3405;SDS011;10008;48.682;9.016;2023-05-07T00:45:14;7.93;;;5.17;;
3405;SDS011;10008;48.682;9.016;2023-05-07T00:47:41;7.30;;;5.73;;
3405;SDS011;10008;48.682;9.016;2023-05-07T00:50:07;12.23;;;5.60;;
3405;SDS011;10008;48.682;9.016;2023-05-07T00:52:35;9.03;;;5.57;;
3405;SDS011;10008;48.682;9.016;2023-05-07T00:55:02;8.53;;;5.17;;
3405;SDS011;10008;48.682;9.016;2023-05-07T00:57:32;7.37;;;5.27;;
3405;SDS011;10008;48.682;9.016;2023-05-07T01:00:02;9.50;;;6.37;;
3405;SDS011;10008;48.682;9.016;2023-05-07T01:02:29;7.70;;;5.00;;
3405;SDS011;10008;48.682;9.016;2023-05-07T01:04:55;7.90;;;5.07;;
3405;SDS011;10008;48.682;9.016;2023-05-07T01:07:22;9.13;;;5.10;;
3405;SDS011;10008;48.682;9.016;2023-05-07T01:09:48;9.73;;;5.80;;
3405;SDS011;10008;48.682;9.016;2023-05-07T01:12:15;6.43;;;4.37;;
3405;SDS011;10008;48.682;9.016;2023-05-07T01:14:41;7.40;;;4.80;;
3405;SDS011;10008;48.682;9.016;2023-05-07T01:17:07;9.00;;;4.80;;
3405;SDS011;10008;48.682;9.016;2023-05-07T01:19:34;8.60;;;5.50;;
3405;SDS011;10008;48.682;9.016;2023-05-07T01:22:03;7.03;;;4.43;;
3405;SDS011;10008;48.682;9.016;2023-05-07T01:24:45;7.17;;;4.80;;
3405;SDS011;10008;48.682;9.016;2023-05-07T01:27:13;7.57;;;5.47;;
3405;SDS011;10008;48.682;9.016;2023-05-07T01:29:39;6.93;;;4.70;;
3405;SDS011;10008;48.682;9.016;2023-05-07T01:32:05;8.60;;;4.90;;
3405;SDS011;10008;48.682;9.016;2023-05-07T01:34:32;7.97;;;5.33;;
3405;SDS011;10008;48.682;9.016;2023-05-07T01:36:59;8.70;;;5.30;;
3405;SDS011;10008;48.682;9.016;2023-05-07T01:39:27;8.40;;;5.07;;
3405;SDS011;10008;48.682;9.016;2023-05-07T01:41:57;9.50;;;5.10;;
3405;SDS011;10008;48.682;9.016;2023-05-07T01:44:24;7.10;;;5.33;;
3405;SDS011;10008;48.682;9.016;2023-05-07T01:46:52;7.40;;;5.13;;
3405;SDS011;10008;48.682;9.016;2023-05-07T01:49:18;9.53;;;5.87;;
3405;SDS011;10008;48.682;9.016;2023-05-07T01:51:44;10.13;;;5.70;;
3405;SDS011;10008;48.682;9.016;2023-05-07T01:54:10;9.30;;;5.90;;
3405;SDS011;10008;48.682;9.016;2023-05-07T01:56:36;8.33;;;5.73;;
3405;SDS011;10008;48.682;9.016;2023-05-07T01:59:02;8.67;;;5.50;;
3405;SDS011;10008;48.682;9.016;2023-05-07T02:01:28;7.87;;;5.30;;
3405;SDS011;10008;48.682;9.016;2023-05-07T02:03:54;8.50;;;5.93;;
3405;SDS011;10008;48.682;9.016;2023-05-07T02:06:23;7.93;;;6.13;;
3405;SDS011;10008;48.682;9.016;2023-05-07T02:08:53;9.60;;;5.90;;
3405;SDS011;10008;48.682;9.016;2023-05-07T02:11:19;10.20;;;5.70;;
3405;SDS011;10008;48.682;9.016;2023-05-07T02:13:45;9.93;;;5.70;;
3405;SDS011;10008;48.682;9.016;2023-05-07T02:16:11;7.50;;;5.57;;
3405;SDS011;10008;48.682;9.016;2023-05-07T02:18:39;9.67;;;6.30;;
3405;SDS011;10008;48.682;9.016;2023-05-07T02:21:05;8.60;;;5.77;;
3405;SDS011;10008;48.682;9.016;2023-05-07T02:23:31;7.73;;;5.70;;
3405;SDS011;10008;48.682;9.016;2023-05-07T02:25:57;10.10;;;5.37;;
3405;SDS011;10008;48.682;9.016;2023-05-07T02:28:23;7.60;;;5.67;;
3405;SDS011;10008;48.682;9.016;2023-05-07T02:30:54;8.53;;;6.00;;
3405;SDS011;10008;48.682;9.016;2023-05-07T02:33:20;8.93;;;6.40;;
3405;SDS011;10008;48.682;9.016;2023-05-07T02:35:46;9.50;;;5.87;;
3405;SDS011;10008;48.682;9.016;2023-05-07T02:38:14;8.80;;;5.97;;
3405;SDS011;10008;48.682;9.016;2023-05-07T02:40:40;10.53;;;5.93;;
3405;SDS011;10008;48.682;9.016;2023-05-07T02:43:06;10.40;;;6.23;;
3405;SDS011;10008;48.682;9.016;2023-05-07T02:45:32;8.70;;;6.00;;
3405;SDS011;10008;48.682;9.016;2023-05-07T02:47:59;10.03;;;5.90;;
3405;SDS011;10008;48.682;9.016;2023-05-07T02:50:25;8.37;;;6.27;;
3405;SDS011;10008;48.682;9.016;2023-05-07T02:52:52;9.60;;;6.13;;
3405;SDS011;10008;48.682;9.016;2023-05-07T02:55:18;10.90;;;6.40;;
3405;SDS011;10008;48.682;9.016;2023-05-07T02:57:44;9.77;;;5.70;;
3405;SDS011;10008;48.682;9.016;2023-05-07T03:00:11;10.50;;;6.10;;
3405;SDS011;10008;48.682;9.016;2023-05-07T03:02:41;9.40;;;6.50;;
3405;SDS011;10008;48.682;9.016;2023-05-07T03:05:07;9.50;;;5.83;;
3405;SDS011;10008;48.682;9.016;2023-05-07T03:07:34;9.20;;;6.57;;
3405;SDS011;10008;48.682;9.016;2023-05-07T03:10:00;7.77;;;5.50;;
3405;SDS011;10008;48.682;9.016;2023-05-07T03:12:26;8.30;;;5.73;;
3405;SDS011;10008;48.682;9.016;2023-05-07T03:14:52;7.40;;;5.47;;
3405;SDS011;10008;48.682;9.016;2023-05-07T03:17:18;7.23;;;5.50;;
3405;SDS011;10008;48.682;9.016;2023-05-07T03:19:45;7.93;;;5.70;;
3405;SDS011;10008;48.682;9.016;2023-05-07T03:22:11;10.33;;;6.40;;
3405;SDS011;10008;48.682;9.016;2023-05-07T03:24:37;9.87;;;6.20;;
3405;SDS011;10008;48.682;9.016;2023-05-07T03:27:03;10.30;;;6.37;;
3405;SDS011;10008;48.682;9.016;2023-05-07T03:29:28;8.57;;;6.13;;
3405;SDS011;10008;48.682;9.016;2023-05-07T03:31:54;10.27;;;6.43;;
3405;SDS011;10008;48.682;9.016;2023-05-07T03:34:20;9.30;;;7.10;;
3405;SDS011;10008;48.682;9.016;2023-05-07T03:36:50;8.73;;;6.37;;
3405;SDS011;10008;48.682;9.016;2023-05-07T03:39:18;11.13;;;7.10;;
3405;SDS011;10008;48.682;9.016;2023-05-07T03:41:43;8.60;;;6.10;;
3405;SDS011;10008;48.682;9.016;2023-05-07T03:44:10;13.37;;;6.77;;
3405;SDS011;10008;48.682;9.016;2023-05-07T03:46:35;10.73;;;6.80;;
3405;SDS011;10008;48.682;9.016;2023-05-07T03:49:02;14.70;;;8.00;;
3405;SDS011;10008;48.682;9.016;2023-05-07T03:51:28;12.27;;;8.17;;
3405;SDS011;10008;48.682;9.016;2023-05-07T03:53:54;10.93;;;7.30;;
3405;SDS011;10008;48.682;9.016;2023-05-07T03:56:22;10.50;;;6.93;;
3405;SDS011;10008;48.682;9.016;2023-05-07T03:58:53;10.53;;;7.00;;
3405;SDS011;10008;48.682;9.016;2023-05-07T04:01:19;11.50;;;7.47;;
3405;SDS011;10008;48.682;9.016;2023-05-07T04:03:46;10.50;;;7.53;;
3405;SDS011;10008;48.682;9.016;2023-05-07T04:06:11;11.80;;;8.17;;
3405;SDS011;10008;48.682;9.016;2023-05-07T04:08:39;9.57;;;6.80;;
3405;SDS011;10008;48.682;9.016;2023-05-07T04:11:06;8.40;;;6.30;;
3405;SDS011;10008;48.682;9.016;2023-05-07T04:13:34;10.53;;;7.23;;
3405;SDS011;10008;48.682;9.016;2023-05-07T04:16:02;11.33;;;6.90;;
3405;SDS011;10008;48.682;9.016;2023-05-07T04:18:29;10.37;;;6.50;;
3405;SDS011;10008;48.682;9.016;2023-05-07T04:20:54;9.23;;;6.27;;
3405;SDS011;10008;48.682;9.016;2023-05-07T04:23:20;9.10;;;6.30;;
3405;SDS011;10008;48.682;9.016;2023-05-07T04:25:47;9.50;;;6.83;;
3405;SDS011;10008;48.682;9.016;2023-05-07T04:28:23;9.80;;;6.93;;
3405;SDS011;10008;48.682;9.016;2023-05-07T04:30:49;10.10;;;6.80;;
3405;SDS011;10008;48.682;9.016;2023-05-07T04:33:15;9.67;;;6.83;;
3405;SDS011;10008;48.682;9.016;2023-05-07T04:35:43;10.07;;;6.57;;
3405;SDS011;10008;48.682;9.016;2023-05-07T04:38:08;8.90;;;6.37;;
3405;SDS011;10008;48.682;9.016;2023-05-07T04:40:38;11.03;;;6.37;;
3405;SDS011;10008;48.682;9.016;2023-05-07T04:43:05;9.70;;;6.57;;
3405;SDS011;10008;48.682;9.016;2023-05-07T04:45:38;12.73;;;8.27;;
3405;SDS011;10008;48.682;9.016;2023-05-07T04:48:07;13.37;;;8.37;;
3405;SDS011;10008;48.682;9.016;2023-05-07T04:50:34;10.13;;;7.43;;
3405;SDS011;10008;48.682;9.016;2023-05-07T04:53:01;10.60;;;6.93;;
3405;SDS011;10008;48.682;9.016;2023-05-07T04:55:28;9.77;;;7.07;;
3405;SDS011;10008;48.682;9.016;2023-05-07T04:57:54;11.40;;;7.33;;
3405;SDS011;10008;48.682;9.016;2023-05-07T05:00:20;10.30;;;7.40;;
3405;SDS011;10008;48.682;9.016;2023-05-07T05:02:48;12.77;;;8.13;;
3405;SDS011;10008;48.682;9.016;2023-05-07T05:05:17;10.97;;;7.20;;
3405;SDS011;10008;48.682;9.016;2023-05-07T05:07:44;10.33;;;7.10;;
3405;SDS011;10008;48.682;9.016;2023-05-07T05:10:10;8.93;;;6.80;;
3405;SDS011;10008;48.682;9.016;2023-05-07T05:12:39;11.27;;;7.40;;
3405;SDS011;10008;48.682;9.016;2023-05-07T05:15:05;11.53;;;6.60;;
3405;SDS011;10008;48.682;9.016;2023-05-07T05:17:32;9.00;;;6.50;;
3405;SDS011;10008;48.682;9.016;2023-05-07T05:20:01;8.90;;;6.27;;
3405;SDS011;10008;48.682;9.016;2023-05-07T05:22:28;11.83;;;6.77;;
3405;SDS011;10008;48.682;9.016;2023-05-07T05:24:56;8.80;;;6.20;;
3405;SDS011;10008;48.682;9.016;2023-05-07T05:27:22;10.27;;;7.03;;
3405;SDS011;10008;48.682;9.016;2023-05-07T05:29:47;7.87;;;5.50;;
3405;SDS011;10008;48.682;9.016;2023-05-07T05:32:13;8.90;;;6.50;;
3405;SDS011;10008;48.682;9.016;2023-05-07T05:34:39;9.20;;;7.00;;
3405;SDS011;10008;48.682;9.016;2023-05-07T05:37:05;10.40;;;7.53;;
3405;SDS011;10008;48.682;9.016;2023-05-07T05:39:31;11.10;;;7.80;;
3405;SDS011;10008;48.682;9.016;2023-05-07T05:41:57;9.50;;;7.20;;
3405;SDS011;10008;48.682;9.016;2023-05-07T05:44:23;9.17;;;7.10;;
3405;SDS011;10008;48.682;9.016;2023-05-07T05:46:49;8.27;;;6.70;;
3405;SDS011;10008;48.682;9.016;2023-05-07T05:49:15;9.47;;;6.70;;
3405;SDS011;10008;48.682;9.016;2023-05-07T05:51:41;8.53;;;6.87;;
3405;SDS011;10008;48.682;9.016;2023-05-07T05:54:07;9.23;;;7.20;;
3405;SDS011;10008;48.682;9.016;2023-05-07T05:56:33;10.23;;;7.90;;
3405;SDS011;10008;48.682;9.016;2023-05-07T05:58:59;8.33;;;7.43;;
3405;SDS011;10008;48.682;9.016;2023-05-07T06:01:25;8.57;;;7.50;;
3405;SDS011;10008;48.682;9.016;2023-05-07T06:03:53;9.37;;;8.47;;
3405;SDS011;10008;48.682;9.016;2023-05-07T06:06:19;9.40;;;8.50;;
3405;SDS011;10008;48.682;9.016;2023-05-07T06:08:45;10.30;;;9.30;;
3405;SDS011;10008;48.682;9.016;2023-05-07T06:11:15;9.83;;;8.83;;
3405;SDS011;10008;48.682;9.016;2023-05-07T06:13:43;10.77;;;9.77;;
3405;SDS011;10008;48.682;9.016;2023-05-07T06:16:10;10.53;;;9.43;;
3405;SDS011;10008;48.682;9.016;2023-05-07T06:18:36;10.77;;;9.80;;
3405;SDS011;10008;48.682;9.016;2023-05-07T06:21:02;11.43;;;10.00;;
3405;SDS011;10008;48.682;9.016;2023-05-07T06:23:31;11.40;;;9.93;;
3405;SDS011;10008;48.682;9.016;2023-05-07T06:25:58;10.97;;;9.87;;
3405;SDS011;10008;48.682;9.016;2023-05-07T06:28:29;11.03;;;10.03;;
3405;SDS011;10008;48.682;9.016;2023-05-07T06:31:11;10.63;;;9.60;;
3405;SDS011;10008;48.682;9.016;2023-05-07T06:33:37;10.43;;;9.43;;
3405;SDS011;10008;48.682;9.016;2023-05-07T06:36:04;10.53;;;9.43;;
3405;SDS011;10008;48.682;9.016;2023-05-07T06:38:30;10.83;;;9.93;;
3405;SDS011;10008;48.682;9.016;2023-05-07T06:40:56;11.07;;;9.93;;
3405;SDS011;10008;48.682;9.016;2023-05-07T06:43:22;11.23;;;10.23;;
3405;SDS011;10008;48.682;9.016;2023-05-07T06:46:09;13.33;;;9.97;;
3405;SDS011;10008;48.682;9.016;2023-05-07T06:48:35;10.60;;;9.60;;
3405;SDS011;10008;48.682;9.016;2023-05-07T06:51:04;10.80;;;9.80;;
3405;SDS011;10008;48.682;9.016;2023-05-07T06:53:30;11.63;;;10.53;;
3405;SDS011;10008;48.682;9.016;2023-05-07T06:55:57;11.13;;;10.23;;
3405;SDS011;10008;48.682;9.016;2023-05-07T06:58:24;11.47;;;10.37;;
3405;SDS011;10008;48.682;9.016;2023-05-07T07:00:50;11.80;;;10.80;;
3405;SDS011;10008;48.682;9.016;2023-05-07T07:03:16;11.90;;;11.00;;
3405;SDS011;10008;48.682;9.016;2023-05-07T07:05:42;12.00;;;11.00;;
3405;SDS011;10008;48.682;9.016;2023-05-07T07:08:09;15.03;;;13.60;;
3405;SDS011;10008;48.682;9.016;2023-05-07T07:10:35;11.27;;;10.30;;
3405;SDS011;10008;48.682;9.016;2023-05-07T07:13:02;11.50;;;10.50;;
3405;SDS011;10008;48.682;9.016;2023-05-07T07:15:28;12.07;;;10.77;;
3405;SDS011;10008;48.682;9.016;2023-05-07T07:17:54;11.20;;;10.40;;
3405;SDS011;10008;48.682;9.016;2023-05-07T07:20:21;11.60;;;10.60;;
3405;SDS011;10008;48.682;9.016;2023-05-07T07:22:47;11.77;;;10.67;;
3405;SDS011;10008;48.682;9.016;2023-05-07T07:25:15;11.70;;;10.60;;
3405;SDS011;10008;48.682;9.016;2023-05-07T07:27:41;11.60;;;10.60;;
3405;SDS011;10008;48.682;9.016;2023-05-07T07:30:07;11.90;;;10.80;;
3405;SDS011;10008;48.682;9.016;2023-05-07T07:32:36;11.40;;;10.40;;
3405;SDS011;10008;48.682;9.016;2023-05-07T07:35:03;11.57;;;10.57;;
3405;SDS011;10008;48.682;9.016;2023-05-07T07:37:30;11.80;;;10.90;;
3405;SDS011;10008;48.682;9.016;2023-05-07T07:39:56;11.33;;;10.43;;
3405;SDS011;10008;48.682;9.016;2023-05-07T07:42:22;11.03;;;10.03;;
3405;SDS011;10008;48.682;9.016;2023-05-07T07:44:48;17.50;;;15.90;;
3405;SDS011;10008;48.682;9.016;2023-05-07T07:47:16;15.70;;;14.20;;
3405;SDS011;10008;48.682;9.016;2023-05-07T07:49:43;13.07;;;11.87;;
3405;SDS011;10008;48.682;9.016;2023-05-07T07:52:09;11.40;;;10.40;;
3405;SDS011;10008;48.682;9.016;2023-05-07T07:54:36;10.90;;;10.00;;
3405;SDS011;10008;48.682;9.016;2023-05-07T07:57:03;11.60;;;10.60;;
3405;SDS011;10008;48.682;9.016;2023-05-07T07:59:31;11.37;;;10.13;;
3405;SDS011;10008;48.682;9.016;2023-05-07T08:01:57;10.40;;;9.50;;
3405;SDS011;10008;48.682;9.016;2023-05-07T08:04:25;10.07;;;9.27;;
3405;SDS011;10008;48.682;9.016;2023-05-07T08:06:53;10.30;;;9.40;;
3405;SDS011;10008;48.682;9.016;2023-05-07T08:09:20;10.07;;;9.30;;
3405;SDS011;10008;48.682;9.016;2023-05-07T08:11:46;10.80;;;9.90;;
3405;SDS011;10008;48.682;9.016;2023-05-07T08:14:12;10.33;;;9.47;;
3405;SDS011;10008;48.682;9.016;2023-05-07T08:16:39;10.67;;;9.70;;
3405;SDS011;10008;48.682;9.016;2023-05-07T08:19:05;10.20;;;9.40;;
3405;SDS011;10008;48.682;9.016;2023-05-07T08:21:31;10.57;;;9.77;;
3405;SDS011;10008;48.682;9.016;2023-05-07T08:23:57;10.70;;;9.70;;
3405;SDS011;10008;48.682;9.016;2023-05-07T08:26:23;10.47;;;9.67;;
3405;SDS011;10008;48.682;9.016;2023-05-07T08:28:49;9.70;;;9.00;;
3405;SDS011;10008;48.682;9.016;2023-05-07T08:31:14;10.40;;;9.60;;
3405;SDS011;10008;48.682;9.016;2023-05-07T08:33:43;10.37;;;9.47;;
3405;SDS011;10008;48.682;9.016;2023-05-07T08:36:08;10.47;;;9.57;;
3405;SDS011;10008;48.682;9.016;2023-05-07T08:38:34;10.17;;;9.37;;
3405;SDS011;10008;48.682;9.016;2023-05-07T08:41:00;10.10;;;9.30;;
3405;SDS011;10008;48.682;9.016;2023-05-07T08:43:30;9.97;;;9.20;;
3405;SDS011;10008;48.682;9.016;2023-05-07T08:45:59;10.90;;;10.00;;
3405;SDS011;10008;48.682;9.016;2023-05-07T08:48:30;10.93;;;10.03;;
3405;SDS011;10008;48.682;9.016;2023-05-07T08:51:05;10.37;;;9.47;;
3405;SDS011;10008;48.682;9.016;2023-05-07T08:53:31;10.40;;;9.60;;
3405;SDS011;10008;48.682;9.016;2023-05-07T08:55:58;10.70;;;9.80;;
3405;SDS011;10008;48.682;9.016;2023-05-07T08:58:25;10.30;;;9.40;;
3405;SDS011;10008;48.682;9.016;2023-05-07T09:00:51;10.10;;;9.40;;
3405;SDS011;10008;48.682;9.016;2023-05-07T09:03:19;10.73;;;9.83;;
3405;SDS011;10008;48.682;9.016;2023-05-07T09:05:48;10.03;;;9.23;;
3405;SDS011;10008;48.682;9.016;2023-05-07T09:08:16;9.50;;;8.80;;
3405;SDS011;10008;48.682;9.016;2023-05-07T09:10:44;10.17;;;9.37;;
3405;SDS011;10008;48.682;9.016;2023-05-07T09:13:10;10.13;;;9.33;;
3405;SDS011;10008;48.682;9.016;2023-05-07T09:15:39;10.27;;;9.47;;
3405;SDS011;10008;48.682;9.016;2023-05-07T09:18:05;10.20;;;9.30;;
3405;SDS011;10008;48.682;9.016;2023-05-07T09:20:33;10.20;;;9.50;;
3405;SDS011;10008;48.682;9.016;2023-05-07T09:23:01;10.20;;;9.40;;
3405;SDS011;10008;48.682;9.016;2023-05-07T09:25:28;10.77;;;9.87;;
3405;SDS011;10008;48.682;9.016;2023-05-07T09:28:03;10.80;;;9.93;;
3405;SDS011;10008;48.682;9.016;2023-05-07T09:30:32;11.50;;;10.47;;
3405;SDS011;10008;48.682;9.016;2023-05-07T09:33:02;10.80;;;10.00;;
3405;SDS011;10008;48.682;9.016;2023-05-07T09:35:29;10.63;;;9.73;;
3405;SDS011;10008;48.682;9.016;2023-05-07T09:38:00;10.40;;;9.57;;
3405;SDS011;10008;48.682;9.016;2023-05-07T09:40:29;10.50;;;9.70;;
3405;SDS011;10008;48.682;9.016;2023-05-07T09:43:09;10.50;;;9.60;;
3405;SDS011;10008;48.682;9.016;2023-05-07T09:45:48;11.83;;;10.70;;
3405;SDS011;10008;48.682;9.016;2023-05-07T09:48:17;11.90;;;10.97;;
3405;SDS011;10008;48.682;9.016;2023-05-07T09:50:47;11.47;;;10.37;;
3405;SDS011;10008;48.682;9.016;2023-05-07T09:53:17;11.40;;;10.50;;
3405;SDS011;10008;48.682;9.016;2023-05-07T09:55:44;11.27;;;10.37;;
3405;SDS011;10008;48.682;9.016;2023-05-07T09:58:11;10.70;;;9.80;;
3405;SDS011;10008;48.682;9.016;2023-05-07T10:00:38;10.93;;;10.13;;
3405;SDS011;10008;48.682;9.016;2023-05-07T10:03:09;11.10;;;10.20;;
3405;SDS011;10008;48.682;9.016;2023-05-07T10:05:44;11.33;;;10.23;;
3405;SDS011;10008;48.682;9.016;2023-05-07T10:08:13;10.23;;;9.33;;
3405;SDS011;10008;48.682;9.016;2023-05-07T10:10:43;11.00;;;10.20;;
3405;SDS011;10008;48.682;9.016;2023-05-07T10:13:14;10.37;;;9.57;;
3405;SDS011;10008;48.682;9.016;2023-05-07T10:15:45;10.50;;;9.70;;
3405;SDS011;10008;48.682;9.016;2023-05-07T10:18:12;10.00;;;9.20;;
3405;SDS011;10008;48.682;9.016;2023-05-07T10:20:39;10.10;;;9.30;;
3405;SDS011;10008;48.682;9.016;2023-05-07T10:23:09;10.27;;;9.40;;
3405;SDS011;10008;48.682;9.016;2023-05-07T10:25:42;9.97;;;9.17;;
3405;SDS011;10008;48.682;9.016;2023-05-07T10:28:16;10.30;;;9.30;;
3405;SDS011;10008;48.682;9.016;2023-05-07T10:33:21;10.70;;;9.80;;
3405;SDS011;10008;48.682;9.016;2023-05-07T10:35:50;11.20;;;10.20;;
3405;SDS011;10008;48.682;9.016;2023-05-07T10:38:16;10.83;;;9.90;;
3405;SDS011;10008;48.682;9.016;2023-05-07T10:40:44;10.73;;;9.82;;
3405;SDS011;10008;48.682;9.016;2023-05-07T10:43:10;10.77;;;9.98;;
3405;SDS011;10008;48.682;9.016;2023-05-07T10:45:41;10.45;;;9.65;;
3405;SDS011;10008;48.682;9.016;2023-05-07T10:50:42;10.63;;;9.63;;
3405;SDS011;10008;48.682;9.016;2023-05-07T10:56:44;10.20;;;9.20;;
3405;SDS011;10008;48.682;9.016;2023-05-07T10:58:53;9.82;;;9.02;;
3405;SDS011;10008;48.682;9.016;2023-05-07T11:04:21;10.45;;;9.57;;
3405;SDS011;10008;48.682;9.016;2023-05-07T11:15:12;11.23;;;10.20;;
3405;SDS011;10008;48.682;9.016;2023-05-07T11:17:55;10.20;;;9.40;;
3405;SDS011;10008;48.682;9.016;2023-05-07T11:26:24;11.00;;;10.10;;
3405;SDS011;10008;48.682;9.016;2023-05-07T11:28:51;11.67;;;10.53;;
3405;SDS011;10008;48.682;9.016;2023-05-07T11:31:22;11.60;;;10.60;;
3405;SDS011;10008;48.682;9.016;2023-05-07T11:33:51;11.50;;;10.40;;
3405;SDS011;10008;48.682;9.016;2023-05-07T11:36:20;12.13;;;11.13;;
3405;SDS011;10008;48.682;9.016;2023-05-07T11:38:52;12.20;;;11.10;;
3405;SDS011;10008;48.682;9.016;2023-05-07T11:41:18;13.30;;;12.20;;
3405;SDS011;10008;48.682;9.016;2023-05-07T11:43:55;18.60;;;17.10;;
3405;SDS011;10008;48.682;9.016;2023-05-07T11:46:21;10.90;;;10.00;;
3405;SDS011;10008;48.682;9.016;2023-05-07T11:48:47;11.13;;;10.13;;
3405;SDS011;10008;48.682;9.016;2023-05-07T11:51:13;33.30;;;30.23;;
3405;SDS011;10008;48.682;9.016;2023-05-07T11:53:51;52.37;;;47.83;;
3405;SDS011;10008;48.682;9.016;2023-05-07T11:56:18;15.97;;;14.43;;
3405;SDS011;10008;48.682;9.016;2023-05-07T11:58:45;12.65;;;11.55;;
3405;SDS011;10008;48.682;9.016;2023-05-07T12:01:13;15.53;;;14.23;;
3405;SDS011;10008;48.682;9.016;2023-05-07T12:03:40;19.43;;;14.83;;
3405;SDS011;10008;48.682;9.016;2023-05-07T12:06:11;13.07;;;10.90;;
3405;SDS011;10008;48.682;9.016;2023-05-07T12:08:38;11.50;;;10.40;;
3405;SDS011;10008;48.682;9.016;2023-05-07T12:11:23;10.10;;;9.20;;
3405;SDS011;10008;48.682;9.016;2023-05-07T12:13:50;9.47;;;8.67;;
3405;SDS011;10008;48.682;9.016;2023-05-07T12:16:16;9.17;;;8.47;;
3405;SDS011;10008;48.682;9.016;2023-05-07T12:18:42;12.33;;;11.03;;
3405;SDS011;10008;48.682;9.016;2023-05-07T12:21:09;9.10;;;8.40;;
3405;SDS011;10008;48.682;9.016;2023-05-07T12:23:36;9.50;;;8.60;;
3405;SDS011;10008;48.682;9.016;2023-05-07T12:26:02;10.93;;;9.57;;
3405;SDS011;10008;48.682;9.016;2023-05-07T12:28:29;10.27;;;9.37;;
3405;SDS011;10008;48.682;9.016;2023-05-07T12:31:02;11.70;;;8.63;;
3405;SDS011;10008;48.682;9.016;2023-05-07T12:33:28;9.90;;;9.00;;
3405;SDS011;10008;48.682;9.016;2023-05-07T12:35:56;9.17;;;8.37;;
3405;SDS011;10008;48.682;9.016;2023-05-07T12:38:21;9.60;;;8.80;;
3405;SDS011;10008;48.682;9.016;2023-05-07T12:40:48;9.63;;;8.83;;
3405;SDS011;10008;48.682;9.016;2023-05-07T12:43:19;10.33;;;8.97;;
3405;SDS011;10008;48.682;9.016;2023-05-07T12:45:48;10.33;;;9.10;;
3405;SDS011;10008;48.682;9.016;2023-05-07T12:48:14;9.03;;;7.60;;
3405;SDS011;10008;48.682;9.016;2023-05-07T12:50:40;10.87;;;7.80;;
3405;SDS011;10008;48.682;9.016;2023-05-07T12:53:07;11.73;;;7.10;;
3405;SDS011;10008;48.682;9.016;2023-05-07T12:55:46;9.40;;;6.93;;
3405;SDS011;10008;48.682;9.016;2023-05-07T12:58:26;9.73;;;7.40;;
3405;SDS011;10008;48.682;9.016;2023-05-07T13:00:54;11.17;;;7.60;;
3405;SDS011;10008;48.682;9.016;2023-05-07T13:05:50;8.97;;;6.63;;
3405;SDS011;10008;48.682;9.016;2023-05-07T13:11:02;11.38;;;6.00;;
3405;SDS011;10008;48.682;9.016;2023-05-07T13:13:32;8.90;;;6.70;;
3405;SDS011;10008;48.682;9.016;2023-05-07T13:15:59;8.40;;;5.37;;
3405;SDS011;10008;48.682;9.016;2023-05-07T13:18:26;9.83;;;5.83;;
3405;SDS011;10008;48.682;9.016;2023-05-07T13:20:52;13.30;;;6.70;;
3405;SDS011;10008;48.682;9.016;2023-05-07T13:23:18;7.67;;;5.70;;
3405;SDS011;10008;48.682;9.016;2023-05-07T13:25:44;9.13;;;6.30;;
3405;SDS011;10008;48.682;9.016;2023-05-07T13:28:10;8.90;;;6.23;;
3405;SDS011;10008;48.682;9.016;2023-05-07T13:30:36;8.70;;;6.37;;
3405;SDS011;10008;48.682;9.016;2023-05-07T13:33:02;7.77;;;6.47;;
3405;SDS011;10008;48.682;9.016;2023-05-07T13:35:27;8.70;;;6.23;;
3405;SDS011;10008;48.682;9.016;2023-05-07T13:37:53;7.17;;;5.60;;
3405;SDS011;10008;48.682;9.016;2023-05-07T13:40:20;9.57;;;8.07;;
3405;SDS011;10008;48.682;9.016;2023-05-07T13:42:49;10.90;;;7.10;;
3405;SDS011;10008;48.682;9.016;2023-05-07T13:45:15;9.70;;;5.63;;
3405;SDS011;10008;48.682;9.016;2023-05-07T13:47:41;10.83;;;6.93;;
3405;SDS011;10008;48.682;9.016;2023-05-07T13:50:08;13.70;;;7.37;;
3405;SDS011;10008;48.682;9.016;2023-05-07T13:52:36;9.63;;;6.57;;
3405;SDS011;10008;48.682;9.016;2023-05-07T13:55:03;11.13;;;7.77;;
3405;SDS011;10008;48.682;9.016;2023-05-07T13:57:29;13.83;;;8.50;;
3405;SDS011;10008;48.682;9.016;2023-05-07T13:59:55;15.67;;;8.87;;
3405;SDS011;10008;48.682;9.016;2023-05-07T14:02:20;13.33;;;8.33;;
3405;SDS011;10008;48.682;9.016;2023-05-07T14:04:46;10.57;;;8.33;;
3405;SDS011;10008;48.682;9.016;2023-05-07T14:07:12;11.07;;;7.37;;
3405;SDS011;10008;48.682;9.016;2023-05-07T14:09:38;10.50;;;7.77;;
3405;SDS011;10008;48.682;9.016;2023-05-07T14:12:03;8.40;;;6.90;;
3405;SDS011;10008;48.682;9.016;2023-05-07T14:14:29;14.03;;;6.87;;
3405;SDS011;10008;48.682;9.016;2023-05-07T14:16:55;9.57;;;6.40;;
3405;SDS011;10008;48.682;9.016;2023-05-07T14:19:21;9.43;;;6.70;;
3405;SDS011;10008;48.682;9.016;2023-05-07T14:21:48;11.97;;;6.37;;
3405;SDS011;10008;48.682;9.016;2023-05-07T14:24:14;9.20;;;6.33;;
3405;SDS011;10008;48.682;9.016;2023-05-07T14:26:39;11.40;;;7.30;;
3405;SDS011;10008;48.682;9.016;2023-05-07T14:29:05;9.23;;;7.00;;
3405;SDS011;10008;48.682;9.016;2023-05-07T14:31:31;10.10;;;6.70;;
3405;SDS011;10008;48.682;9.016;2023-05-07T14:33:58;9.50;;;7.33;;
3405;SDS011;10008;48.682;9.016;2023-05-07T14:36:24;9.33;;;7.40;;
3405;SDS011;10008;48.682;9.016;2023-05-07T14:38:51;8.70;;;6.13;;
3405;SDS011;10008;48.682;9.016;2023-05-07T14:41:19;7.23;;;6.20;;
3405;SDS011;10008;48.682;9.016;2023-05-07T14:43:46;9.93;;;5.90;;
3405;SDS011;10008;48.682;9.016;2023-05-07T14:46:18;8.93;;;7.30;;
3405;SDS011;10008;48.682;9.016;2023-05-07T14:48:47;10.50;;;8.07;;
3405;SDS011;10008;48.682;9.016;2023-05-07T14:51:13;9.87;;;7.20;;
3405;SDS011;10008;48.682;9.016;2023-05-07T14:53:40;8.37;;;6.70;;
3405;SDS011;10008;48.682;9.016;2023-05-07T14:56:06;10.40;;;6.70;;
3405;SDS011;10008;48.682;9.016;2023-05-07T14:58:33;8.97;;;6.77;;
3405;SDS011;10008;48.682;9.016;2023-05-07T15:00:59;8.30;;;6.90;;
3405;SDS011;10008;48.682;9.016;2023-05-07T15:03:25;10.33;;;7.10;;
3405;SDS011;10008;48.682;9.016;2023-05-07T15:05:52;8.67;;;7.13;;
3405;SDS011;10008;48.682;9.016;2023-05-07T15:08:17;8.47;;;6.27;;
3405;SDS011;10008;48.682;9.016;2023-05-07T15:10:43;11.80;;;7.00;;
3405;SDS011;10008;48.682;9.016;2023-05-07T15:13:10;8.10;;;6.40;;
3405;SDS011;10008;48.682;9.016;2023-05-07T15:15:36;9.63;;;7.20;;
3405;SDS011;10008;48.682;9.016;2023-05-07T15:18:03;9.47;;;7.03;;
3405;SDS011;10008;48.682;9.016;2023-05-07T15:20:29;9.83;;;7.50;;
3405;SDS011;10008;48.682;9.016;2023-05-07T15:22:55;10.63;;;8.60;;